Time;durP1;ratioP1;P1;durP2;ratioP2;P2;SDS_P1;SDS_P2;PMS_P1;PMS_P2;Temp;Humidity;BMP_temperature;BMP_pressure;BME280_temperature;BME280_humidity;BME280_pressure;Samples;Min_cycle;Max_cycle;Signal;HPM_P1;HPM_P2
2023/10/06 00:00:34;;;;;;;7.65;5.18;;;13.70;99.90;;;;;;5079568;28;20071;-35
2023/10/06 00:03:05;;;;;;;9.55;5.63;;;13.70;99.90;;;;;;5086125;28;20041;-35
2023/10/06 00:05:32;;;;;;;11.13;5.55;;;13.70;99.90;;;;;;5092357;28;20113;-37
2023/10/06 00:07:58;;;;;;;9.85;4.97;;;13.70;99.90;;;;;;5084077;28;20041;-36
2023/10/06 00:10:27;;;;;;;12.52;6.13;;;13.70;99.90;;;;;;5105061;22;20040;-89
2023/10/06 00:12:59;;;;;;;11.13;5.72;;;13.70;99.90;;;;;;5096577;27;20067;-89
2023/10/06 00:15:43;;;;;;;10.60;5.72;;;13.60;99.90;;;;;;5115632;27;20412;-88
2023/10/06 00:18:16;;;;;;;13.25;6.03;;;13.70;99.90;;;;;;5088073;27;20078;-88
2023/10/06 00:20:48;;;;;;;12.68;6.50;;;13.60;99.90;;;;;;5085170;27;20062;-87
2023/10/06 00:23:15;;;;;;;7.13;5.93;;;13.70;99.90;;;;;;5082989;27;20078;-88
2023/10/06 00:25:43;;;;;;;9.73;5.78;;;13.70;99.90;;;;;;5116440;27;20062;-88
2023/10/06 00:28:19;;;;;;;12.88;7.57;;;13.60;99.90;;;;;;5125162;27;20035;-88
2023/10/06 00:31:01;;;;;;;15.10;7.85;;;13.60;99.90;;;;;;5113156;28;20096;-88
2023/10/06 00:33:37;;;;;;;11.80;7.20;;;13.60;99.90;;;;;;5114257;28;20050;-88
2023/10/06 00:36:14;;;;;;;17.70;7.70;;;13.60;99.90;;;;;;5105048;27;20541;-88
2023/10/06 00:38:50;;;;;;;12.95;7.72;;;13.60;99.90;;;;;;5115204;27;20516;-88
2023/10/06 00:41:22;;;;;;;10.13;8.10;;;13.60;99.90;;;;;;5084079;28;20457;-88
2023/10/06 00:43:49;;;;;;;10.20;7.53;;;13.60;99.90;;;;;;5118019;27;20507;-88
2023/10/06 00:46:16;;;;;;;12.63;8.32;;;13.60;99.90;;;;;;5116011;27;20042;-88
2023/10/06 00:48:44;;;;;;;13.27;8.05;;;13.60;99.90;;;;;;5116710;27;20398;-88
2023/10/06 00:51:22;;;;;;;11.88;7.60;;;13.60;99.90;;;;;;5118086;27;20489;-88
2023/10/06 00:53:52;;;;;;;11.75;8.02;;;13.60;99.90;;;;;;5083566;28;20036;-89
2023/10/06 00:56:23;;;;;;;11.43;7.43;;;13.60;99.90;;;;;;5087728;27;20126;-88
2023/10/06 00:58:49;;;;;;;11.50;8.65;;;13.60;99.90;;;;;;5099706;27;20447;-88
2023/10/06 01:01:18;;;;;;;12.65;8.00;;;13.60;99.90;;;;;;5082792;27;20036;-86
2023/10/06 01:03:48;;;;;;;13.27;7.95;;;13.60;99.90;;;;;;5116293;27;20036;-89
2023/10/06 01:06:15;;;;;;;14.35;7.88;;;13.60;99.90;;;;;;5101015;27;20035;-89
2023/10/06 01:08:52;;;;;;;12.35;8.18;;;13.60;99.90;;;;;;5098370;27;20067;-90
2023/10/06 01:11:26;;;;;;;11.02;8.15;;;13.60;99.90;;;;;;5098279;27;20027;-88
2023/10/06 01:13:56;;;;;;;12.85;7.72;;;13.60;99.90;;;;;;5098639;28;20049;-89
2023/10/06 01:16:30;;;;;;;11.15;8.18;;;13.60;99.90;;;;;;5095819;28;20130;-89
2023/10/06 01:19:15;;;;;;;11.88;7.85;;;13.60;99.90;;;;;;5085400;27;20057;-89
2023/10/06 01:21:55;;;;;;;11.18;8.07;;;13.70;99.90;;;;;;5096221;27;20046;-90
2023/10/06 01:24:26;;;;;;;9.77;7.80;;;13.80;99.90;;;;;;5096917;28;20036;-89
2023/10/06 01:27:18;;;;;;;13.00;7.95;;;13.80;99.90;;;;;;5101952;27;20038;-88
2023/10/06 01:29:45;;;;;;;12.25;7.13;;;13.80;99.90;;;;;;5097674;27;20071;-89
2023/10/06 01:32:11;;;;;;;10.75;7.78;;;13.80;99.90;;;;;;5080738;28;20047;-89
2023/10/06 01:34:40;;;;;;;12.18;7.30;;;13.70;99.90;;;;;;5084853;28;20035;-89
2023/10/06 01:37:07;;;;;;;9.20;7.28;;;13.70;99.90;;;;;;5080141;28;20489;-89
2023/10/06 01:39:36;;;;;;;13.65;7.72;;;13.60;99.90;;;;;;5097655;28;20089;-90
2023/10/06 01:42:17;;;;;;;10.20;7.38;;;13.60;99.90;;;;;;5080795;28;20047;-89
2023/10/06 01:44:43;;;;;;;11.48;7.50;;;13.70;99.90;;;;;;5103445;27;20047;-88
2023/10/06 01:47:09;;;;;;;13.85;8.00;;;13.60;99.90;;;;;;5096098;28;20436;-89
2023/10/06 01:49:35;;;;;;;9.05;7.22;;;13.60;99.90;;;;;;5086343;27;20095;-89
2023/10/06 01:52:02;;;;;;;10.10;7.53;;;13.60;99.90;;;;;;5100198;28;20122;-89
2023/10/06 01:54:34;;;;;;;9.48;7.03;;;13.60;99.90;;;;;;5077958;28;20042;-89
2023/10/06 01:57:04;;;;;;;12.43;7.97;;;13.60;99.90;;;;;;5084840;27;20066;-88
2023/10/06 01:59:30;;;;;;;14.15;8.07;;;13.50;99.90;;;;;;5087266;28;20542;-89
2023/10/06 02:02:00;;;;;;;11.77;8.30;;;13.50;99.90;;;;;;5079718;28;20036;-88
2023/10/06 02:04:26;;;;;;;14.65;7.80;;;13.60;99.90;;;;;;5082071;28;20043;-89
2023/10/06 02:06:52;;;;;;;14.63;7.97;;;13.50;99.90;;;;;;5099287;28;20039;-88
2023/10/06 02:09:18;;;;;;;9.32;7.03;;;13.40;99.90;;;;;;5097763;27;20045;-88
2023/10/06 02:11:50;;;;;;;14.23;7.80;;;13.40;99.90;;;;;;5113108;27;20132;-89
2023/10/06 02:14:19;;;;;;;12.48;7.90;;;13.40;99.90;;;;;;5083850;27;20390;-88
2023/10/06 02:16:45;;;;;;;9.52;7.25;;;13.50;99.90;;;;;;5086144;28;20040;-89
2023/10/06 02:19:16;;;;;;;12.13;7.57;;;13.50;99.90;;;;;;5081865;27;20035;-89
2023/10/06 02:21:51;;;;;;;11.55;7.97;;;13.50;99.90;;;;;;5088902;27;20118;-89
2023/10/06 02:24:17;;;;;;;10.95;7.32;;;13.50;99.90;;;;;;5096560;28;20063;-88
2023/10/06 02:26:57;;;;;;;13.48;7.47;;;13.50;99.90;;;;;;5097722;28;20065;-89
2023/10/06 02:29:23;;;;;;;12.77;7.63;;;13.60;99.90;;;;;;5083683;28;20573;-88
2023/10/06 02:32:00;;;;;;;14.07;8.05;;;13.60;99.90;;;;;;5079730;27;20040;-88
2023/10/06 02:34:35;;;;;;;13.07;8.05;;;13.60;99.90;;;;;;5078122;28;20423;-88
2023/10/06 02:37:01;;;;;;;11.57;7.28;;;13.70;99.90;;;;;;5078261;28;20088;-89
2023/10/06 02:39:31;;;;;;;12.18;7.20;;;13.60;99.90;;;;;;5104686;27;20038;-88
2023/10/06 02:41:57;;;;;;;13.25;7.55;;;13.70;99.90;;;;;;5081178;28;20035;-88
2023/10/06 02:44:24;;;;;;;15.40;7.20;;;13.70;99.90;;;;;;5080351;28;20036;-89
2023/10/06 02:46:53;;;;;;;14.52;7.82;;;13.70;99.90;;;;;;5095807;28;20525;-89
2023/10/06 02:49:47;;;;;;;13.27;7.82;;;13.70;99.90;;;;;;5082551;28;20036;-89
2023/10/06 02:52:13;;;;;;;11.35;7.28;;;13.70;99.90;;;;;;5098353;28;20059;-89
2023/10/06 02:54:45;;;;;;;13.82;8.07;;;13.70;99.90;;;;;;5098476;28;20039;-88
2023/10/06 02:57:11;;;;;;;11.25;7.65;;;13.70;99.90;;;;;;5100075;28;20043;-89
2023/10/06 02:59:36;;;;;;;11.75;7.38;;;13.70;99.90;;;;;;5098049;28;20405;-88
2023/10/06 03:02:15;;;;;;;15.13;7.97;;;13.70;99.90;;;;;;5084129;28;20092;-88
2023/10/06 03:04:43;;;;;;;13.23;8.15;;;13.60;99.90;;;;;;5081085;28;20123;-89
2023/10/06 03:07:15;;;;;;;9.60;6.88;;;13.70;99.90;;;;;;5098800;28;20061;-89
2023/10/06 03:09:47;;;;;;;14.40;7.32;;;13.70;99.90;;;;;;5098420;28;20521;-90
2023/10/06 03:12:26;;;;;;;14.02;7.55;;;13.70;99.90;;;;;;5099822;28;20027;-90
2023/10/06 03:14:54;;;;;;;12.20;7.47;;;13.70;99.90;;;;;;5084790;28;20108;-91
2023/10/06 03:17:20;;;;;;;11.70;7.22;;;13.60;99.90;;;;;;5084756;28;20039;-90
2023/10/06 03:20:08;;;;;;;12.93;7.45;;;13.60;99.90;;;;;;5116076;28;20046;-90
2023/10/06 03:22:35;;;;;;;12.43;7.65;;;13.60;99.90;;;;;;5099471;27;20405;-90
2023/10/06 03:25:13;;;;;;;11.98;7.30;;;13.60;99.90;;;;;;5121058;27;20038;-89
2023/10/06 03:27:40;;;;;;;9.73;7.13;;;13.50;99.90;;;;;;5122106;27;20068;-89
2023/10/06 03:30:26;;;;;;;11.23;7.35;;;13.40;99.90;;;;;;5105239;27;20040;-89
2023/10/06 03:32:53;;;;;;;15.07;7.80;;;13.40;99.90;;;;;;5087195;27;20036;-89
2023/10/06 03:35:23;;;;;;;11.23;6.85;;;13.30;99.90;;;;;;5089981;27;20504;-90
2023/10/06 03:37:53;;;;;;;12.35;8.43;;;13.30;99.90;;;;;;5101084;27;20098;-90
2023/10/06 03:40:35;;;;;;;12.40;7.20;;;13.20;99.90;;;;;;5100606;27;20040;-89
2023/10/06 03:43:05;;;;;;;11.27;7.45;;;13.20;99.90;;;;;;5099134;28;20035;-90
2023/10/06 03:45:34;;;;;;;14.23;7.95;;;13.20;99.90;;;;;;5103153;28;20031;-90
2023/10/06 03:48:13;;;;;;;11.07;7.57;;;13.20;99.90;;;;;;5090251;27;20563;-90
2023/10/06 03:50:43;;;;;;;11.77;7.47;;;13.20;99.90;;;;;;5087750;27;20051;-90
2023/10/06 03:53:11;;;;;;;14.05;7.32;;;13.20;99.90;;;;;;5088343;27;20646;-90
2023/10/06 03:55:46;;;;;;;15.30;7.65;;;13.20;99.90;;;;;;5085922;27;20074;-89
2023/10/06 03:58:17;;;;;;;13.55;7.28;;;13.20;99.90;;;;;;5086864;28;20031;-89
2023/10/06 04:00:49;;;;;;;10.50;7.43;;;13.20;99.90;;;;;;5085268;27;20054;-90
2023/10/06 04:03:17;;;;;;;12.18;6.60;;;13.20;99.90;;;;;;5106487;27;20423;-90
2023/10/06 04:05:50;;;;;;;11.00;6.82;;;13.20;99.90;;;;;;5085032;27;20051;-90
2023/10/06 04:08:22;;;;;;;12.35;7.00;;;13.10;99.90;;;;;;5084223;28;20047;-90
2023/10/06 04:10:57;;;;;;;12.53;7.47;;;13.10;99.90;;;;;;5108031;28;20046;-90
2023/10/06 04:13:26;;;;;;;11.27;7.43;;;13.00;99.90;;;;;;5098549;27;20039;-90
2023/10/06 04:15:52;;;;;;;11.00;7.32;;;13.10;99.90;;;;;;5117590;27;20023;-88
2023/10/06 04:18:29;;;;;;;13.60;7.75;;;13.10;99.90;;;;;;5113171;27;20042;-89
2023/10/06 04:20:55;;;;;;;12.07;7.80;;;13.10;99.90;;;;;;5108487;28;20043;-89
2023/10/06 04:23:24;;;;;;;11.80;6.72;;;13.10;99.90;;;;;;5106935;27;20061;-90
2023/10/06 04:25:54;;;;;;;15.10;7.45;;;13.10;99.90;;;;;;5108417;27;20116;-90
2023/10/06 04:28:25;;;;;;;12.90;7.38;;;13.10;99.90;;;;;;5125192;27;20055;-90
2023/10/06 04:30:51;;;;;;;14.65;8.52;;;13.10;99.90;;;;;;5085112;27;20516;-89
2023/10/06 04:33:18;;;;;;;13.40;7.80;;;13.00;99.90;;;;;;5083556;28;20039;-90
2023/10/06 04:38:31;;;;;;;12.95;7.80;;;13.00;99.90;;;;;;5102064;27;20054;-90
2023/10/06 04:40:57;;;;;;;16.08;8.15;;;13.00;99.90;;;;;;5082246;27;20054;-91
2023/10/06 04:43:23;;;;;;;12.38;7.85;;;12.90;99.90;;;;;;5084396;28;20122;-89
2023/10/06 04:45:50;;;;;;;10.05;7.20;;;12.90;99.90;;;;;;5120589;27;20043;-90
2023/10/06 04:48:18;;;;;;;13.98;8.20;;;13.00;99.90;;;;;;5080475;28;20043;-89
2023/10/06 04:50:45;;;;;;;12.15;7.10;;;12.90;99.90;;;;;;5090716;27;20063;-89
2023/10/06 04:53:11;;;;;;;12.77;7.82;;;12.90;99.90;;;;;;5104890;28;20490;-90
2023/10/06 04:55:43;;;;;;;12.02;7.15;;;12.80;99.90;;;;;;5098399;28;20097;-89
2023/10/06 04:58:13;;;;;;;9.50;7.13;;;12.80;99.90;;;;;;5091334;27;20118;-89
2023/10/06 05:00:39;;;;;;;11.20;8.13;;;12.80;99.90;;;;;;5098404;27;20074;-88
2023/10/06 05:03:10;;;;;;;15.43;7.75;;;12.80;99.90;;;;;;5096128;27;20052;-88
2023/10/06 05:05:42;;;;;;;13.30;7.43;;;12.70;99.90;;;;;;5105544;28;20044;-88
2023/10/06 05:08:14;;;;;;;13.45;7.65;;;12.70;99.90;;;;;;5086031;27;20078;-89
2023/10/06 05:10:41;;;;;;;14.27;8.20;;;12.70;99.90;;;;;;5084396;27;20073;-89
2023/10/06 05:13:07;;;;;;;16.08;8.02;;;12.70;99.90;;;;;;5088905;27;20118;-90
2023/10/06 05:15:37;;;;;;;15.50;7.97;;;12.70;99.90;;;;;;5120726;27;20462;-87
2023/10/06 05:18:07;;;;;;;13.05;8.52;;;12.70;99.90;;;;;;5119930;27;20032;-89
2023/10/06 05:20:35;;;;;;;12.32;8.10;;;12.70;99.90;;;;;;5081169;27;20039;-89
2023/10/06 05:23:07;;;;;;;13.48;8.35;;;12.70;99.90;;;;;;5083108;28;20108;-90
2023/10/06 05:25:33;;;;;;;12.50;7.88;;;12.70;99.90;;;;;;5116161;27;20553;-90
2023/10/06 05:28:00;;;;;;;12.25;8.13;;;12.70;99.90;;;;;;5082839;28;20040;-88
2023/10/06 05:30:30;;;;;;;14.27;8.13;;;12.70;99.90;;;;;;5096935;27;20044;-90
2023/10/06 05:32:58;;;;;;;12.02;7.95;;;12.70;99.90;;;;;;5101386;27;20046;-89
2023/10/06 05:35:25;;;;;;;12.27;7.93;;;12.70;99.90;;;;;;5084783;27;20042;-88
2023/10/06 05:37:51;;;;;;;11.38;8.13;;;12.70;99.90;;;;;;5076971;27;20032;-89
2023/10/06 05:40:20;;;;;;;13.52;8.38;;;12.80;99.90;;;;;;5080193;28;20148;-89
2023/10/06 05:42:51;;;;;;;11.95;7.70;;;12.70;99.90;;;;;;5110914;27;20043;-88
2023/10/06 05:45:18;;;;;;;13.43;8.23;;;12.80;99.90;;;;;;5083031;28;20032;-89
2023/10/06 05:47:51;;;;;;;12.93;8.70;;;12.80;99.90;;;;;;5082461;27;20036;-88
2023/10/06 05:50:27;;;;;;;14.55;8.27;;;12.80;99.90;;;;;;5079268;28;20076;-88
2023/10/06 05:53:04;;;;;;;12.35;8.18;;;12.80;99.90;;;;;;5079045;27;20066;-90
2023/10/06 05:55:31;;;;;;;13.57;7.68;;;12.80;99.90;;;;;;5081955;28;20405;-88
2023/10/06 05:58:00;;;;;;;13.68;7.82;;;12.80;99.90;;;;;;5082587;27;20047;-87
2023/10/06 06:00:29;;;;;;;13.05;7.38;;;12.90;99.90;;;;;;5094924;28;20040;-88
2023/10/06 06:02:59;;;;;;;12.32;7.55;;;12.90;99.90;;;;;;5083066;28;20035;-88
2023/10/06 06:05:29;;;;;;;13.15;7.75;;;13.00;99.90;;;;;;5077746;27;20050;-87
2023/10/06 06:07:59;;;;;;;11.00;7.35;;;13.10;99.90;;;;;;5081840;28;20509;-88
2023/10/06 06:10:28;;;;;;;11.35;7.25;;;13.10;99.90;;;;;;5123281;22;20135;-29
2023/10/06 06:12:54;;;;;;;12.63;7.15;;;13.20;99.90;;;;;;5084671;28;20143;-29
2023/10/06 06:15:21;;;;;;;15.05;8.07;;;13.20;99.90;;;;;;5077808;28;20036;-29
2023/10/06 06:17:47;;;;;;;13.43;7.10;;;13.30;99.90;;;;;;5074409;28;20107;-29
2023/10/06 06:20:18;;;;;;;10.55;7.53;;;13.30;99.90;;;;;;5078629;28;20101;-29
2023/10/06 06:22:58;;;;;;;12.23;7.82;;;13.40;99.90;;;;;;5078350;28;20079;-29
2023/10/06 06:25:26;;;;;;;13.85;7.38;;;13.40;99.90;;;;;;5085315;28;20040;-29
2023/10/06 06:27:54;;;;;;;13.65;6.93;;;13.50;99.90;;;;;;5079118;28;20112;-29
2023/10/06 06:30:21;;;;;;;11.23;6.50;;;13.50;99.90;;;;;;5074050;28;20069;-29
2023/10/06 06:32:50;;;;;;;15.68;6.78;;;13.60;99.90;;;;;;5078250;28;20032;-29
2023/10/06 06:35:19;;;;;;;13.05;6.78;;;13.70;99.90;;;;;;5069225;28;20507;-29
2023/10/06 06:37:46;;;;;;;10.85;6.70;;;13.80;99.90;;;;;;5076558;28;20060;-29
2023/10/06 06:40:13;;;;;;;10.65;6.75;;;13.80;99.90;;;;;;5088099;28;20525;-29
2023/10/06 06:42:40;;;;;;;11.98;7.03;;;13.80;99.90;;;;;;5077269;28;20043;-29
2023/10/06 06:45:06;;;;;;;15.27;7.30;;;13.90;99.90;;;;;;5082929;28;20047;-29
2023/10/06 06:47:32;;;;;;;12.68;7.03;;;13.90;99.90;;;;;;5053247;28;20562;-29
2023/10/06 06:50:00;;;;;;;12.23;6.90;;;13.90;99.90;;;;;;5081446;28;20123;-29
2023/10/06 06:52:27;;;;;;;10.82;6.60;;;14.00;99.90;;;;;;5076346;28;20044;-29
2023/10/06 06:54:53;;;;;;;10.07;6.85;;;14.00;99.90;;;;;;5078208;28;20162;-29
2023/10/06 06:57:19;;;;;;;12.35;5.68;;;14.10;99.90;;;;;;5087017;28;20118;-29
2023/10/06 06:59:45;;;;;;;10.35;6.50;;;14.10;99.90;;;;;;5075803;28;20044;-29
2023/10/06 07:02:11;;;;;;;10.75;6.85;;;14.20;99.90;;;;;;5089850;28;20479;-29
2023/10/06 07:04:37;;;;;;;10.50;6.13;;;14.20;99.90;;;;;;5085506;28;20060;-29
2023/10/06 07:07:03;;;;;;;13.80;6.60;;;14.30;99.90;;;;;;5095642;28;20043;-29
2023/10/06 07:09:29;;;;;;;10.88;6.03;;;14.30;99.90;;;;;;5092054;28;20054;-29
2023/10/06 07:11:55;;;;;;;8.85;6.15;;;14.40;99.90;;;;;;5082026;28;20036;-29
2023/10/06 07:14:21;;;;;;;12.10;5.97;;;14.40;99.90;;;;;;5088882;28;20036;-29
2023/10/06 07:16:47;;;;;;;13.00;5.70;;;14.40;99.90;;;;;;5084279;28;20055;-29
2023/10/06 07:19:17;;;;;;;10.88;6.20;;;14.50;99.90;;;;;;5095089;28;20035;-29
2023/10/06 07:21:44;;;;;;;10.70;6.35;;;14.50;99.90;;;;;;5089903;28;20074;-29
2023/10/06 07:24:10;;;;;;;10.10;6.28;;;14.50;99.90;;;;;;5090740;28;20141;-29
2023/10/06 07:26:36;;;;;;;10.52;6.22;;;14.60;99.90;;;;;;5094122;28;20345;-29
2023/10/06 07:29:05;;;;;;;10.40;5.75;;;14.60;99.90;;;;;;5087244;28;20135;-29
2023/10/06 07:31:31;;;;;;;11.27;6.13;;;14.60;99.90;;;;;;5090045;28;20044;-29
2023/10/06 07:34:02;;;;;;;11.45;5.82;;;14.50;99.90;;;;;;5088187;28;20059;-29
2023/10/06 07:36:29;;;;;;;13.05;6.53;;;14.50;99.90;;;;;;5086787;28;20040;-29
2023/10/06 07:38:54;;;;;;;11.57;6.32;;;14.50;99.90;;;;;;5088724;28;20479;-29
2023/10/06 07:41:25;;;;;;;10.88;6.30;;;14.50;99.90;;;;;;5081095;28;20217;-29
2023/10/06 07:43:51;;;;;;;10.40;6.22;;;14.60;99.90;;;;;;5092267;28;20546;-29
2023/10/06 07:46:17;;;;;;;10.75;6.20;;;14.60;99.90;;;;;;5085931;28;20036;-29
2023/10/06 07:48:45;;;;;;;9.48;5.78;;;14.60;99.90;;;;;;5086347;28;20506;-29
2023/10/06 07:51:16;;;;;;;11.43;6.47;;;14.70;99.90;;;;;;5085027;28;20506;-29
2023/10/06 07:53:43;;;;;;;11.15;6.13;;;14.70;99.90;;;;;;5087963;28;20457;-29
2023/10/06 07:56:09;;;;;;;9.05;6.00;;;14.80;99.90;;;;;;5092337;28;20032;-29
2023/10/06 07:58:41;;;;;;;13.43;6.65;;;14.80;99.90;;;;;;5085073;28;20033;-29
2023/10/06 08:01:08;;;;;;;9.93;5.72;;;14.90;99.90;;;;;;5083289;28;20045;-29
2023/10/06 08:03:41;;;;;;;13.05;6.43;;;14.90;99.90;;;;;;5089906;28;20036;-29
2023/10/06 08:06:10;;;;;;;10.45;6.10;;;15.00;99.90;;;;;;5089549;28;20115;-29
2023/10/06 08:08:37;;;;;;;10.68;6.25;;;15.00;99.90;;;;;;5078012;28;20035;-29
2023/10/06 08:11:08;;;;;;;11.70;6.82;;;15.10;99.90;;;;;;5082407;28;20111;-29
2023/10/06 08:13:35;;;;;;;11.55;6.90;;;15.10;99.90;;;;;;5082671;28;20413;-29
2023/10/06 08:16:01;;;;;;;9.05;5.85;;;15.20;99.90;;;;;;5083951;28;20041;-29
2023/10/06 08:18:29;;;;;;;10.88;6.55;;;15.20;99.90;;;;;;5095728;28;20040;-29
2023/10/06 08:20:56;;;;;;;10.85;6.55;;;15.20;99.90;;;;;;5068685;28;20544;-29
2023/10/06 08:23:21;;;;;;;10.32;6.63;;;15.20;99.90;;;;;;5084915;28;20067;-29
2023/10/06 08:25:49;;;;;;;11.02;6.50;;;15.20;99.90;;;;;;5086139;28;20714;-29
2023/10/06 08:28:14;;;;;;;10.13;6.18;;;15.20;99.90;;;;;;5080862;28;20035;-29
2023/10/06 08:30:40;;;;;;;13.10;7.20;;;15.30;99.90;;;;;;5086500;28;20066;-29
2023/10/06 08:33:09;;;;;;;9.73;6.80;;;15.40;99.90;;;;;;5095517;28;20046;-29
2023/10/06 08:35:40;;;;;;;13.55;7.38;;;15.50;99.90;;;;;;5086625;27;20040;-29
2023/10/06 08:38:07;;;;;;;11.48;6.90;;;15.60;99.90;;;;;;5080783;28;20071;-29
2023/10/06 08:40:41;;;;;;;10.27;6.35;;;15.90;99.90;;;;;;5092193;28;20122;-29
2023/10/06 08:43:08;;;;;;;9.65;6.78;;;16.10;99.90;;;;;;5076717;28;20449;-29
2023/10/06 08:45:40;;;;;;;9.90;7.07;;;16.30;99.90;;;;;;5088592;28;20032;-29
2023/10/06 08:48:09;;;;;;;9.98;6.65;;;16.20;99.90;;;;;;5077542;28;20576;-29
2023/10/06 08:50:36;;;;;;;10.45;7.00;;;16.10;99.90;;;;;;5084390;28;20109;-29
2023/10/06 08:53:09;;;;;;;13.25;6.85;;;16.00;99.90;;;;;;5084067;28;20480;-29
2023/10/06 08:55:38;;;;;;;9.50;6.72;;;15.80;99.90;;;;;;5084972;28;20047;-29
2023/10/06 08:58:04;;;;;;;11.50;7.40;;;15.70;99.90;;;;;;5086313;28;20036;-29
2023/10/06 09:00:34;;;;;;;14.50;7.40;;;15.60;99.90;;;;;;5083291;28;20040;-29
2023/10/06 09:03:07;;;;;;;12.05;7.32;;;15.50;99.90;;;;;;5083263;28;20048;-29
2023/10/06 09:05:35;;;;;;;12.32;8.07;;;15.50;99.90;;;;;;5096650;28;20039;-29
2023/10/06 09:08:07;;;;;;;14.05;7.85;;;15.50;99.90;;;;;;5085335;28;20077;-29
2023/10/06 09:10:37;;;;;;;12.95;7.80;;;15.50;99.90;;;;;;5085290;28;20035;-29
2023/10/06 09:13:08;;;;;;;14.35;7.78;;;15.50;99.90;;;;;;5091090;28;20058;-29
2023/10/06 09:15:39;;;;;;;12.70;7.20;;;15.60;99.90;;;;;;5090267;28;20050;-29
2023/10/06 09:18:21;;;;;;;12.48;8.30;;;15.60;99.90;;;;;;5087299;28;20086;-29
2023/10/06 09:20:48;;;;;;;11.30;8.05;;;15.70;99.90;;;;;;5081208;28;20035;-29
2023/10/06 09:23:31;;;;;;;14.38;8.27;;;15.80;99.90;;;;;;5089029;28;20111;-29
2023/10/06 09:25:58;;;;;;;12.75;8.38;;;15.90;99.90;;;;;;5087784;28;20093;-29
2023/10/06 09:28:24;;;;;;;15.73;8.27;;;15.90;99.90;;;;;;5086936;28;20036;-29
2023/10/06 09:30:56;;;;;;;10.48;8.05;;;16.10;99.90;;;;;;5082304;28;20506;-29
2023/10/06 09:33:25;;;;;;;12.48;8.15;;;16.20;99.90;;;;;;5082884;28;20459;-29
2023/10/06 09:36:01;;;;;;;12.80;7.32;;;16.30;99.90;;;;;;5084683;28;20093;-29
2023/10/06 09:38:27;;;;;;;12.80;7.07;;;16.40;99.90;;;;;;5083431;28;20055;-29
2023/10/06 09:40:52;;;;;;;10.10;6.22;;;16.50;99.90;;;;;;5080277;28;20028;-30
2023/10/06 09:43:19;;;;;;;9.85;7.18;;;16.60;99.90;;;;;;5080515;28;20033;-30
2023/10/06 09:45:50;;;;;;;12.60;7.05;;;16.60;99.90;;;;;;5086778;28;20407;-29
2023/10/06 09:48:22;;;;;;;9.13;6.30;;;16.60;99.90;;;;;;5080458;28;20097;-29
2023/10/06 09:50:50;;;;;;;10.65;6.57;;;16.70;99.90;;;;;;5082738;28;20138;-29
2023/10/06 09:53:19;;;;;;;11.32;7.10;;;16.90;99.90;;;;;;5083523;28;20492;-29
2023/10/06 09:55:49;;;;;;;13.02;7.07;;;17.00;99.90;;;;;;5084503;28;20097;-29
2023/10/06 09:58:17;;;;;;;9.02;6.40;;;17.10;99.90;;;;;;5085061;28;20410;-29
2023/10/06 10:00:44;;;;;;;10.73;6.68;;;17.20;99.90;;;;;;5081842;28;20043;-30
2023/10/06 10:03:13;;;;;;;8.20;5.85;;;17.40;99.90;;;;;;5079057;28;20066;-29
2023/10/06 10:05:39;;;;;;;10.52;6.55;;;17.40;99.90;;;;;;5080105;28;20032;-29
2023/10/06 10:08:08;;;;;;;9.73;5.90;;;17.50;99.90;;;;;;5079276;28;20068;-30
2023/10/06 10:10:36;;;;;;;9.88;5.75;;;17.70;99.90;;;;;;5082980;28;20042;-30
2023/10/06 10:13:19;;;;;;;8.05;6.30;;;17.90;99.90;;;;;;5082325;28;20037;-29
2023/10/06 10:16:00;;;;;;;8.02;5.43;;;18.10;99.90;;;;;;5080309;28;20093;-30
2023/10/06 10:18:35;;;;;;;9.25;5.65;;;18.50;99.90;;;;;;5078747;28;20127;-30
2023/10/06 10:21:02;;;;;;;10.82;5.38;;;19.00;99.90;;;;;;5080534;28;20047;-30
2023/10/06 10:23:31;;;;;;;10.07;5.60;;;19.30;99.90;;;;;;5080968;28;20383;-30
2023/10/06 10:26:22;;;;;;;6.47;4.85;;;19.60;99.90;;;;;;5083634;28;20132;-30
2023/10/06 10:29:17;;;;;;;7.15;4.57;;;20.40;99.90;;;;;;5067186;28;20037;-30
2023/10/06 10:31:51;;;;;;;8.70;4.90;;;20.80;99.90;;;;;;5044657;28;20048;-30
2023/10/06 10:34:25;;;;;;;10.32;4.75;;;21.10;99.90;;;;;;5073798;28;20051;-30
2023/10/06 10:37:05;;;;;;;7.03;4.28;;;20.90;99.90;;;;;;5064754;28;20044;-30
2023/10/06 10:39:48;;;;;;;9.18;4.20;;;20.60;99.90;;;;;;5085696;28;20043;-27
2023/10/06 10:42:38;;;;;;;10.57;5.18;;;20.30;99.90;;;;;;5079718;28;20040;-30
2023/10/06 10:45:30;;;;;;;8.80;4.38;;;20.00;99.90;;;;;;5085992;28;20040;-30
2023/10/06 10:47:59;;;;;;;7.15;4.22;;;20.00;99.90;;;;;;5073278;28;20051;-30
2023/10/06 10:50:55;;;;;;;9.32;4.47;;;20.10;99.90;;;;;;5081019;28;20442;-30
2023/10/06 10:53:21;;;;;;;7.05;3.72;;;20.50;99.90;;;;;;5078752;28;20090;-28
2023/10/06 10:55:47;;;;;;;9.35;4.80;;;20.90;99.90;;;;;;5086762;28;20040;-27
2023/10/06 10:58:44;;;;;;;8.90;4.38;;;21.00;99.90;;;;;;5081427;28;20043;-30
2023/10/06 11:01:29;;;;;;;8.05;4.50;;;21.20;99.90;;;;;;5077903;28;20040;-30
2023/10/06 11:04:13;;;;;;;6.80;4.13;;;21.50;99.90;;;;;;5081914;28;20044;-30
2023/10/06 11:06:39;;;;;;;11.10;4.38;;;21.50;99.90;;;;;;5074246;28;20040;-30
2023/10/06 11:09:25;;;;;;;7.70;3.85;;;21.30;99.90;;;;;;5075241;28;20973;-30
2023/10/06 11:11:55;;;;;;;6.40;4.00;;;21.00;99.90;;;;;;5087099;28;20090;-30
2023/10/06 11:14:37;;;;;;;8.00;4.18;;;20.70;99.90;;;;;;5079981;28;20037;-30
2023/10/06 11:17:05;;;;;;;5.90;3.47;;;20.40;99.90;;;;;;5077506;28;20037;-30
2023/10/06 11:19:32;;;;;;;7.07;3.70;;;20.10;99.90;;;;;;5078672;28;20059;-30
2023/10/06 11:22:10;;;;;;;8.07;4.07;;;19.90;99.90;;;;;;5077773;28;20451;-30
2023/10/06 11:24:37;;;;;;;7.03;3.40;;;19.90;99.90;;;;;;5080684;28;20541;-30
2023/10/06 11:27:14;;;;;;;7.05;4.20;;;19.80;99.90;;;;;;5076699;28;20036;-30
2023/10/06 11:29:40;;;;;;;7.85;4.43;;;19.70;99.90;;;;;;5082565;28;20051;-30
2023/10/06 11:32:07;;;;;;;6.55;3.30;;;19.60;99.90;;;;;;5074927;28;20075;-30
2023/10/06 11:34:34;;;;;;;8.20;3.60;;;19.50;99.90;;;;;;5073967;28;20039;-30
2023/10/06 11:37:01;;;;;;;11.05;3.88;;;19.50;99.90;;;;;;5072358;28;20040;-30
2023/10/06 11:39:31;;;;;;;6.68;3.83;;;19.30;99.90;;;;;;5084900;28;20126;-30
2023/10/06 11:42:22;;;;;;;6.30;3.70;;;19.20;99.90;;;;;;5084042;28;20098;-30
2023/10/06 11:44:48;;;;;;;6.75;3.80;;;19.10;99.90;;;;;;5094172;28;20040;-30
2023/10/06 11:47:13;;;;;;;8.23;4.00;;;19.10;99.90;;;;;;5088954;28;20041;-30
2023/10/06 11:49:58;;;;;;;8.57;4.25;;;19.10;99.90;;;;;;5078189;28;20040;-30
2023/10/06 11:52:25;;;;;;;8.50;4.72;;;19.20;99.90;;;;;;5088361;28;20055;-30
2023/10/06 11:54:51;;;;;;;8.48;4.38;;;19.20;99.90;;;;;;5080152;28;20028;-30
2023/10/06 11:57:41;;;;;;;9.40;4.07;;;19.30;99.90;;;;;;5092706;28;20501;-30
2023/10/06 12:00:10;;;;;;;9.30;4.25;;;19.40;99.90;;;;;;5089215;28;20082;-30
2023/10/06 12:02:46;;;;;;;6.95;3.65;;;19.50;99.90;;;;;;5091614;28;20043;-30
2023/10/06 12:05:13;;;;;;;8.20;4.07;;;19.60;99.90;;;;;;5085624;28;20043;-30
2023/10/06 12:07:39;;;;;;;7.18;4.50;;;19.60;99.90;;;;;;5084965;28;20048;-30
2023/10/06 12:10:06;;;;;;;8.70;3.67;;;19.50;99.90;;;;;;5101388;22;20043;-84
2023/10/06 12:12:32;;;;;;;5.55;3.75;;;19.50;99.90;;;;;;5053257;28;20127;-83
2023/10/06 12:14:58;;;;;;;9.52;4.38;;;19.40;99.90;;;;;;5059404;28;20029;-84
2023/10/06 12:17:27;;;;;;;7.88;3.35;;;19.40;99.90;;;;;;5073512;28;20035;-84
2023/10/06 12:19:53;;;;;;;8.63;4.38;;;19.70;99.90;;;;;;5040654;28;20052;-84
2023/10/06 12:22:20;;;;;;;7.35;4.35;;;20.10;99.90;;;;;;5043460;28;20483;-85
2023/10/06 12:24:45;;;;;;;7.22;3.92;;;20.40;99.90;;;;;;5043533;28;20056;-85
2023/10/06 12:27:15;;;;;;;11.15;4.35;;;20.60;99.90;;;;;;5052797;28;20430;-84
2023/10/06 12:29:41;;;;;;;9.30;4.03;;;20.80;99.90;;;;;;5058005;28;20257;-84
2023/10/06 12:32:07;;;;;;;11.82;4.55;;;21.40;99.90;;;;;;5037541;28;20047;-85
2023/10/06 12:34:33;;;;;;;11.68;4.97;;;21.90;99.90;;;;;;5040341;28;20119;-84
2023/10/06 12:37:03;;;;;;;10.73;4.22;;;22.30;99.90;;;;;;5035053;28;20030;-85
2023/10/06 12:39:34;;;;;;;8.30;4.65;;;22.40;99.90;;;;;;5039803;28;20404;-85
2023/10/06 12:42:01;;;;;;;9.63;4.63;;;22.30;99.90;;;;;;5058027;28;20047;-83
2023/10/06 12:44:27;;;;;;;8.77;4.57;;;22.40;99.90;;;;;;5043593;28;20044;-80
2023/10/06 12:46:56;;;;;;;6.88;3.92;;;23.00;99.90;;;;;;5028495;28;20041;-83
2023/10/06 12:49:23;;;;;;;8.07;4.22;;;23.60;99.90;;;;;;5039066;28;20052;-86
2023/10/06 12:51:52;;;;;;;9.23;4.55;;;24.00;99.90;;;;;;5039326;28;20048;-85
2023/10/06 12:54:19;;;;;;;8.98;4.07;;;24.60;99.90;;;;;;5060945;28;20029;-85
2023/10/06 12:56:46;;;;;;;5.78;4.30;;;24.70;99.90;;;;;;5041828;28;20128;-83
2023/10/06 12:59:12;;;;;;;8.57;4.25;;;24.90;99.90;;;;;;5024345;28;20052;-84